Rechercher aéroport 
image banner adimage banner ad
image banner ad

VDPP - Phnom Penh International

Situé à Phnom Penh, Cambodia

ICAO - VDPP, IATA - PNH

Données fournies par Airmate  

Information générale

Coordonnées: N11°32'48" E104°50'39"
Élévation : 40 feet MSL.
 
Évalué:
Voir évaluations: [VIEW]


Voir autres Aéroports à Kandaal

Données opérationnelles

Accessible au public
Heure actuelle UTC:
Heure actuelle locale:
Météo
METAR: VDPP 122200Z VRB02KT 9000 FEW015 26/25 Q1006
TAF: TAF VDPP 121700Z 1218/1312 19007KT 9999 SCT017 TEMPO 1206/1211 5000 TSRA SCT015 FEW017CB SCT040
Voir NOTAMs / SUP AIP / TFR affectant cet aéroport [VIEW]
Fréquences de communication: [VIEW]

Pistes:

Identifiant RWYQFULongueur (ft)Largeur (ft)SurfaceLDA (ft)
0546°9843148ASP
239843148

Coordonnées de l'aéroport

Adresse: Phnom Penh Cambodia

Vue satellite de VDPP